createdAt,value
2019-05-09T00:00:09.608Z,1.83
2019-05-09T00:01:09.618Z,1.83
2019-05-09T00:02:09.629Z,1.80
2019-05-09T00:03:09.651Z,1.80
2019-05-09T00:04:09.636Z,1.83
2019-05-09T00:05:09.642Z,1.84
2019-05-09T00:06:09.649Z,1.76
2019-05-09T00:07:09.657Z,1.87
2019-05-09T00:08:09.672Z,1.83
2019-05-09T00:09:09.675Z,1.84
2019-05-09T00:10:09.682Z,1.87
2019-05-09T00:11:09.690Z,1.84
2019-05-09T00:12:09.695Z,1.88
2019-05-09T00:13:09.701Z,1.95
2019-05-09T00:14:09.712Z,2.02
2019-05-09T00:15:09.716Z,2.09
2019-05-09T00:16:09.723Z,2.03
2019-05-09T00:17:09.737Z,2.03
2019-05-09T00:18:09.741Z,2.18
2019-05-09T00:19:09.745Z,2.12
2019-05-09T00:20:09.753Z,2.30
2019-05-09T00:21:09.765Z,2.59
2019-05-09T00:22:09.781Z,2.63
2019-05-09T00:23:09.776Z,2.63
2019-05-09T00:24:09.782Z,2.67
2019-05-09T00:25:09.786Z,2.69
2019-05-09T00:26:09.794Z,2.69
2019-05-09T00:27:09.806Z,2.59
2019-05-09T00:28:09.813Z,2.52
2019-05-09T00:29:09.815Z,2.46
2019-05-09T00:30:09.823Z,2.42
2019-05-09T00:31:09.837Z,2.34
2019-05-09T00:32:09.847Z,2.31
2019-05-09T00:33:09.846Z,2.28
2019-05-09T00:34:09.852Z,2.27
2019-05-09T00:35:09.864Z,2.25
2019-05-09T00:36:09.865Z,2.30
2019-05-09T00:37:09.872Z,2.25
2019-05-09T00:38:09.883Z,2.24
2019-05-09T00:39:09.887Z,2.27
2019-05-09T00:40:09.901Z,2.28
2019-05-09T00:41:09.905Z,2.23
2019-05-09T00:42:09.916Z,2.25
2019-05-09T00:43:09.916Z,2.20
2019-05-09T00:44:09.929Z,2.05
2019-05-09T00:45:09.934Z,1.93
2019-05-09T00:46:09.937Z,1.95
2019-05-09T00:47:09.949Z,1.83
2019-05-09T00:48:09.955Z,1.70
2019-05-09T00:49:09.962Z,1.68
2019-05-09T00:50:09.971Z,1.68
2019-05-09T00:51:09.978Z,1.69
2019-05-09T00:52:09.985Z,1.76
2019-05-09T00:53:09.993Z,1.70
2019-05-09T00:54:09.997Z,1.80
2019-05-09T00:55:10.006Z,1.80
2019-05-09T00:56:10.013Z,1.81
2019-05-09T00:57:10.016Z,1.69
2019-05-09T00:58:10.032Z,1.72
2019-05-09T00:59:10.033Z,1.70
2019-05-09T01:00:10.038Z,1.76
2019-05-09T01:01:10.046Z,1.79
2019-05-09T01:02:10.052Z,1.79
2019-05-09T01:03:10.058Z,1.76
2019-05-09T01:04:10.069Z,1.70
2019-05-09T01:05:10.074Z,1.68
2019-05-09T01:06:10.079Z,1.69
2019-05-09T01:07:10.087Z,1.66
2019-05-09T01:08:10.092Z,1.69
2019-05-09T01:09:10.099Z,1.70
2019-05-09T01:10:10.107Z,1.69
2019-05-09T01:11:14.605Z,1.73
2019-05-09T01:12:10.124Z,1.70
2019-05-09T01:13:10.126Z,1.76
2019-05-09T01:14:10.136Z,1.66
2019-05-09T01:15:10.143Z,1.79
2019-05-09T01:16:10.149Z,1.80
2019-05-09T01:17:10.156Z,1.80
2019-05-09T01:18:10.160Z,1.80
2019-05-09T01:19:10.172Z,1.86
2019-05-09T01:20:10.176Z,1.86
2019-05-09T01:21:10.181Z,1.86
2019-05-09T01:22:10.188Z,1.80
2019-05-09T01:23:10.196Z,1.84
2019-05-09T01:24:10.207Z,1.90
2019-05-09T01:25:10.210Z,1.99
2019-05-09T01:26:10.221Z,1.91
2019-05-09T01:27:10.226Z,2.05
2019-05-09T01:28:10.231Z,2.03
2019-05-09T01:29:10.241Z,2.03
2019-05-09T01:30:10.243Z,2.07
2019-05-09T01:31:10.255Z,2.16
2019-05-09T01:32:10.264Z,2.09
2019-05-09T01:33:10.267Z,2.09
2019-05-09T01:34:10.277Z,2.14
2019-05-09T01:35:10.283Z,2.02
2019-05-09T01:36:10.289Z,1.90
2019-05-09T01:37:10.292Z,1.88
2019-05-09T01:38:10.301Z,1.87
2019-05-09T01:39:10.312Z,1.80
2019-05-09T01:40:10.320Z,1.79
2019-05-09T01:41:24.648Z,1.70
2019-05-09T01:42:10.333Z,1.70
2019-05-09T01:43:10.338Z,1.69
2019-05-09T01:44:10.347Z,1.59
2019-05-09T01:45:10.350Z,1.58
2019-05-09T01:46:10.361Z,1.50
2019-05-09T01:47:10.364Z,1.60
2019-05-09T01:48:10.370Z,1.54
2019-05-09T01:49:10.383Z,1.62
2019-05-09T01:50:10.386Z,1.58
2019-05-09T01:51:10.393Z,1.59
2019-05-09T01:52:10.398Z,1.48
2019-05-09T01:53:10.407Z,1.47
2019-05-09T01:54:10.412Z,1.54
2019-05-09T01:55:10.420Z,1.51
2019-05-09T01:56:10.428Z,1.48
2019-05-09T01:57:10.434Z,1.41
2019-05-09T01:58:10.438Z,1.45
2019-05-09T01:59:10.443Z,1.41
2019-05-09T02:00:10.452Z,1.52
2019-05-09T02:01:10.465Z,1.45
2019-05-09T02:02:10.463Z,1.47
2019-05-09T02:03:10.471Z,1.50
2019-05-09T02:04:10.477Z,1.62
2019-05-09T02:05:10.483Z,1.62
2019-05-09T02:06:10.490Z,1.58
2019-05-09T02:07:10.502Z,1.59
2019-05-09T02:08:10.506Z,1.58
2019-05-09T02:09:10.513Z,1.63
2019-05-09T02:10:10.520Z,1.54
2019-05-09T02:11:10.526Z,1.51
2019-05-09T02:12:10.536Z,1.48
2019-05-09T02:13:10.549Z,1.58
2019-05-09T02:14:10.551Z,1.48
2019-05-09T02:15:10.555Z,1.50
2019-05-09T02:16:10.558Z,1.40
2019-05-09T02:17:10.565Z,1.48
2019-05-09T02:18:10.570Z,1.51
2019-05-09T02:19:10.579Z,1.44
2019-05-09T02:20:10.589Z,1.44
2019-05-09T02:21:12.372Z,1.45
2019-05-09T02:22:10.601Z,1.41
2019-05-09T02:23:10.609Z,1.47
2019-05-09T02:24:10.615Z,1.45
2019-05-09T02:25:10.617Z,1.47
2019-05-09T02:26:10.635Z,1.51
2019-05-09T02:27:10.638Z,1.34
2019-05-09T02:28:10.637Z,1.34
2019-05-09T02:29:10.648Z,1.37
2019-05-09T02:30:10.658Z,1.34
2019-05-09T02:31:10.662Z,1.34
2019-05-09T02:32:10.666Z,1.41
2019-05-09T02:33:10.674Z,1.36
2019-05-09T02:34:14.694Z,1.44
2019-05-09T02:35:10.693Z,1.36
2019-05-09T02:36:10.696Z,1.40
2019-05-09T02:37:10.704Z,1.33
2019-05-09T02:38:10.707Z,1.36
2019-05-09T02:39:10.715Z,1.37
2019-05-09T02:40:10.737Z,1.36
2019-05-09T02:41:10.728Z,1.37
2019-05-09T02:42:14.281Z,1.37
2019-05-09T02:43:10.746Z,1.33
2019-05-09T02:44:10.746Z,1.33
2019-05-09T02:45:10.756Z,1.40
2019-05-09T02:46:10.759Z,1.33
2019-05-09T02:47:10.769Z,1.36
2019-05-09T02:48:10.773Z,1.33
2019-05-09T02:49:10.795Z,1.33
2019-05-09T02:50:10.790Z,1.22
2019-05-09T02:51:10.804Z,1.29
2019-05-09T02:52:10.803Z,1.15
2019-05-09T02:53:10.827Z,1.32
2019-05-09T02:54:10.824Z,1.23
2019-05-09T02:55:10.995Z,1.26
2019-05-09T02:56:10.832Z,1.24
2019-05-09T02:57:10.833Z,1.36
2019-05-09T02:58:10.840Z,1.40
2019-05-09T02:59:10.851Z,1.36
2019-05-09T03:00:10.857Z,1.45
2019-05-09T03:01:10.865Z,1.52
2019-05-09T03:02:10.868Z,1.45
2019-05-09T03:03:10.881Z,1.51
2019-05-09T03:04:10.883Z,1.59
2019-05-09T03:05:10.886Z,1.50
2019-05-09T03:06:10.894Z,1.47
2019-05-09T03:07:10.906Z,1.50
2019-05-09T03:08:10.912Z,1.50
2019-05-09T03:09:10.917Z,1.52
2019-05-09T03:10:10.930Z,1.45
2019-05-09T03:11:10.931Z,1.55
2019-05-09T03:12:26.895Z,1.45
2019-05-09T03:13:10.947Z,1.36
2019-05-09T03:14:10.948Z,1.42
2019-05-09T03:15:10.955Z,1.37
2019-05-09T03:16:10.960Z,1.41
2019-05-09T03:17:10.975Z,1.22
2019-05-09T03:18:10.976Z,1.27
2019-05-09T03:19:10.980Z,1.14
2019-05-09T03:20:10.991Z,1.08
2019-05-09T03:21:10.993Z,1.04
2019-05-09T03:22:11.017Z,1.02
2019-05-09T03:23:11.015Z,1.00
2019-05-09T03:24:11.013Z,1.05
2019-05-09T03:25:11.031Z,0.98
2019-05-09T03:26:11.025Z,0.98
2019-05-09T03:27:11.034Z,0.91
2019-05-09T03:28:11.041Z,0.91
2019-05-09T03:29:11.049Z,1.00
2019-05-09T03:30:12.348Z,1.04
2019-05-09T03:31:11.060Z,0.98
2019-05-09T03:32:11.068Z,1.04
2019-05-09T03:33:11.081Z,0.97
2019-05-09T03:34:11.087Z,1.02
2019-05-09T03:35:11.089Z,1.06
2019-05-09T03:36:11.095Z,1.00
2019-05-09T03:37:11.098Z,1.04
2019-05-09T03:38:11.107Z,1.12
2019-05-09T03:39:11.109Z,1.05
2019-05-09T03:40:11.121Z,1.12
2019-05-09T03:41:11.125Z,1.16
2019-05-09T03:42:11.133Z,1.09
2019-05-09T03:43:11.143Z,1.12
2019-05-09T03:44:11.148Z,1.09
2019-05-09T03:45:11.146Z,1.20
2019-05-09T03:46:11.172Z,1.15
2019-05-09T03:47:11.162Z,1.15
2019-05-09T03:48:11.167Z,1.18
2019-05-09T03:49:11.174Z,1.24
2019-05-09T03:50:11.193Z,1.24
2019-05-09T03:51:11.189Z,1.09
2019-05-09T03:52:11.191Z,1.23
2019-05-09T03:53:11.201Z,1.23
2019-05-09T03:54:11.208Z,1.26
2019-05-09T03:55:11.214Z,1.26
2019-05-09T03:56:11.217Z,1.14
2019-05-09T03:57:11.222Z,1.11
2019-05-09T03:58:11.229Z,1.14
2019-05-09T03:59:11.235Z,1.04
2019-05-09T04:00:11.243Z,1.00
2019-05-09T04:01:11.250Z,1.02
2019-05-09T04:02:11.259Z,1.05
2019-05-09T04:03:11.265Z,1.04
2019-05-09T04:04:11.269Z,0.97
2019-05-09T04:05:11.277Z,0.97
2019-05-09T04:06:11.281Z,1.04
2019-05-09T04:07:11.288Z,0.96
2019-05-09T04:08:11.297Z,0.94
2019-05-09T04:09:11.311Z,0.97
2019-05-09T04:10:11.311Z,0.94
2019-05-09T04:11:11.318Z,0.94
2019-05-09T04:12:11.323Z,0.97
2019-05-09T04:13:11.326Z,0.96
2019-05-09T04:14:11.335Z,0.91
2019-05-09T04:15:11.339Z,1.00
2019-05-09T04:16:11.349Z,1.15
2019-05-09T04:17:11.357Z,1.29
2019-05-09T04:18:11.359Z,1.29
2019-05-09T04:19:11.365Z,1.34
2019-05-09T04:20:11.378Z,1.45
2019-05-09T04:21:11.378Z,1.34
2019-05-09T04:22:11.385Z,1.50
2019-05-09T04:23:11.390Z,1.42
2019-05-09T04:24:11.399Z,1.41
2019-05-09T04:25:11.405Z,1.40
2019-05-09T04:26:11.410Z,1.59
2019-05-09T04:27:11.417Z,1.60
2019-05-09T04:28:11.424Z,1.58
2019-05-09T04:29:11.433Z,1.68
2019-05-09T04:30:11.434Z,1.63
2019-05-09T04:31:11.444Z,1.63
2019-05-09T04:32:11.450Z,1.68
2019-05-09T04:33:11.466Z,1.68
2019-05-09T04:34:11.466Z,1.68
2019-05-09T04:35:11.467Z,1.66
2019-05-09T04:36:11.472Z,1.65
2019-05-09T04:37:12.293Z,1.59
2019-05-09T04:38:11.485Z,1.58
2019-05-09T04:39:12.760Z,1.54
2019-05-09T04:40:11.498Z,1.47
2019-05-09T04:41:18.359Z,1.45
2019-05-09T04:42:11.510Z,1.40
2019-05-09T04:43:16.852Z,1.47
2019-05-09T04:44:16.749Z,1.36
2019-05-09T04:45:11.528Z,1.47
2019-05-09T04:46:12.971Z,1.33
2019-05-09T04:47:11.546Z,1.44
2019-05-09T04:48:17.558Z,1.37
2019-05-09T04:49:11.556Z,1.47
2019-05-09T04:50:15.399Z,1.33
2019-05-09T04:51:11.568Z,1.36
2019-05-09T04:52:11.577Z,1.37
2019-05-09T04:53:11.579Z,1.34
2019-05-09T04:54:11.588Z,1.33
2019-05-09T04:55:11.593Z,1.42
2019-05-09T04:56:11.600Z,1.41
2019-05-09T04:57:11.608Z,1.40
2019-05-09T04:58:11.612Z,1.40
2019-05-09T04:59:11.618Z,1.52
2019-05-09T05:00:11.626Z,1.54
2019-05-09T05:01:11.631Z,1.45
2019-05-09T05:02:11.639Z,1.42
2019-05-09T05:03:11.645Z,1.45
2019-05-09T05:04:11.655Z,1.41
2019-05-09T05:05:11.656Z,1.48
2019-05-09T05:06:11.664Z,1.47
2019-05-09T05:07:11.676Z,1.47
2019-05-09T05:08:11.676Z,1.54
2019-05-09T05:09:11.683Z,1.50
2019-05-09T05:10:11.689Z,1.68
2019-05-09T05:11:11.696Z,1.72
2019-05-09T05:12:11.706Z,1.70
2019-05-09T05:13:23.096Z,1.76
2019-05-09T05:14:11.717Z,1.84
2019-05-09T05:15:11.724Z,1.84
2019-05-09T05:16:11.730Z,1.86
2019-05-09T05:17:11.740Z,1.90
2019-05-09T05:18:11.743Z,1.88
2019-05-09T05:19:11.755Z,1.83
2019-05-09T05:20:11.762Z,1.93
2019-05-09T05:21:11.763Z,1.98
2019-05-09T05:22:11.768Z,1.90
2019-05-09T05:23:11.777Z,1.98
2019-05-09T05:24:11.789Z,2.07
2019-05-09T05:25:11.819Z,2.00
2019-05-09T05:26:11.804Z,2.05
2019-05-09T05:27:11.807Z,2.05
2019-05-09T05:28:11.811Z,2.17
2019-05-09T05:29:11.820Z,2.20
2019-05-09T05:30:11.827Z,2.07
2019-05-09T05:31:11.832Z,2.16
2019-05-09T05:32:11.841Z,2.23
2019-05-09T05:33:11.849Z,2.28
2019-05-09T05:34:11.878Z,2.30
2019-05-09T05:35:11.865Z,2.46
2019-05-09T05:36:11.871Z,2.43
2019-05-09T05:37:11.877Z,2.46
2019-05-09T05:38:11.882Z,2.56
2019-05-09T05:39:11.890Z,2.53
2019-05-09T05:40:11.905Z,2.67
2019-05-09T05:41:11.903Z,2.77
2019-05-09T05:42:11.917Z,2.82
2019-05-09T05:43:11.919Z,2.85
2019-05-09T05:44:11.925Z,2.93
2019-05-09T05:45:11.939Z,2.90
2019-05-09T05:46:11.941Z,2.97
2019-05-09T05:47:11.950Z,2.97
2019-05-09T05:48:11.958Z,2.99
2019-05-09T05:49:11.965Z,3.08
2019-05-09T05:50:11.976Z,3.03
2019-05-09T05:51:11.981Z,2.96
2019-05-09T05:52:11.988Z,3.02
2019-05-09T05:53:11.994Z,3.05
2019-05-09T05:54:12.002Z,2.90
2019-05-09T05:55:12.011Z,2.97
2019-05-09T05:56:12.021Z,2.99
2019-05-09T05:57:12.026Z,2.97
2019-05-09T05:58:12.036Z,3.06
2019-05-09T05:59:12.045Z,3.03
2019-05-09T06:00:12.052Z,3.06
2019-05-09T06:01:12.063Z,3.06
2019-05-09T06:02:12.066Z,3.15
2019-05-09T06:03:12.078Z,3.21
2019-05-09T06:04:12.085Z,3.20
2019-05-09T06:05:12.089Z,3.23
2019-05-09T06:06:12.098Z,3.15
2019-05-09T06:07:12.106Z,3.11
2019-05-09T06:08:12.117Z,3.06
2019-05-09T06:09:12.123Z,3.05
2019-05-09T06:10:12.134Z,3.03
2019-05-09T06:11:12.423Z,3.08
2019-05-09T06:12:12.145Z,3.14
2019-05-09T06:13:12.153Z,3.23
2019-05-09T06:14:12.163Z,3.13
2019-05-09T06:15:12.172Z,3.17
2019-05-09T06:16:12.178Z,3.17
2019-05-09T06:17:12.183Z,3.21
2019-05-09T06:18:12.190Z,3.24
2019-05-09T06:19:12.205Z,3.24
2019-05-09T06:20:12.211Z,3.21
2019-05-09T06:21:12.216Z,3.14
2019-05-09T06:22:12.226Z,3.03
2019-05-09T06:23:12.233Z,3.05
2019-05-09T06:24:12.246Z,3.06
2019-05-09T06:25:12.252Z,3.05
2019-05-09T06:26:12.259Z,3.02
2019-05-09T06:27:12.262Z,3.08
2019-05-09T06:28:12.276Z,3.10
2019-05-09T06:29:12.283Z,3.10
2019-05-09T06:30:12.289Z,3.10
2019-05-09T06:31:12.296Z,3.11
2019-05-09T06:32:12.307Z,3.11
2019-05-09T06:33:12.312Z,3.08
2019-05-09T06:34:12.319Z,3.20
2019-05-09T06:35:12.337Z,3.20
2019-05-09T06:36:12.350Z,3.35
2019-05-09T06:37:12.343Z,3.48
2019-05-09T06:38:12.356Z,3.52
2019-05-09T06:39:12.360Z,3.68
2019-05-09T06:40:12.374Z,3.84
2019-05-09T06:41:12.375Z,3.93
2019-05-09T06:42:12.390Z,3.96
2019-05-09T06:43:12.392Z,4.06
2019-05-09T06:44:17.015Z,3.93
2019-05-09T06:45:12.412Z,3.91
2019-05-09T06:46:12.421Z,3.83
2019-05-09T06:47:12.425Z,3.76
2019-05-09T06:48:12.435Z,3.68
2019-05-09T06:49:24.233Z,3.51
2019-05-09T06:50:12.454Z,3.45
2019-05-09T06:51:12.465Z,3.33
2019-05-09T06:52:12.471Z,3.21
2019-05-09T06:53:12.481Z,3.20
2019-05-09T06:54:12.485Z,3.24
2019-05-09T06:55:12.493Z,3.28
2019-05-09T06:56:12.501Z,3.21
2019-05-09T06:57:12.518Z,3.17
2019-05-09T06:58:12.537Z,3.13
2019-05-09T06:59:12.527Z,3.10
2019-05-09T07:00:12.537Z,3.08
2019-05-09T07:01:12.549Z,2.97
2019-05-09T07:02:12.557Z,2.89
2019-05-09T07:03:12.563Z,2.93
2019-05-09T07:04:12.574Z,2.95
2019-05-09T07:05:12.581Z,2.78
2019-05-09T07:06:12.585Z,2.79
2019-05-09T07:07:12.595Z,2.66
2019-05-09T07:08:12.605Z,2.69
2019-05-09T07:09:12.613Z,2.63
2019-05-09T07:10:12.627Z,2.67
2019-05-09T07:11:12.626Z,2.74
2019-05-09T07:12:12.634Z,3.03
2019-05-09T07:13:12.641Z,3.00
2019-05-09T07:14:25.844Z,3.21
2019-05-09T07:15:12.657Z,3.31
2019-05-09T07:16:12.666Z,3.47
2019-05-09T07:17:12.680Z,3.42
2019-05-09T07:18:12.685Z,3.55
2019-05-09T07:19:12.689Z,3.52
2019-05-09T07:20:12.697Z,3.65
2019-05-09T07:21:12.705Z,3.78
2019-05-09T07:22:12.717Z,3.83
2019-05-09T07:23:12.721Z,3.88
2019-05-09T07:24:12.755Z,4.05
2019-05-09T07:25:12.740Z,4.08
2019-05-09T07:26:12.753Z,4.12
2019-05-09T07:27:12.756Z,4.30
2019-05-09T07:28:12.766Z,4.27
2019-05-09T07:29:12.782Z,4.29
2019-05-09T07:30:12.784Z,4.08
2019-05-09T07:31:12.787Z,4.08
2019-05-09T07:32:12.797Z,4.16
2019-05-09T07:33:12.813Z,4.08
2019-05-09T07:34:12.812Z,4.11
2019-05-09T07:35:12.825Z,4.18
2019-05-09T07:36:12.833Z,4.09
2019-05-09T07:37:12.844Z,4.24
2019-05-09T07:38:12.851Z,4.26
2019-05-09T07:39:12.857Z,4.20
2019-05-09T07:40:12.870Z,4.23
2019-05-09T07:41:12.877Z,4.12
2019-05-09T07:42:12.882Z,4.14
2019-05-09T07:43:12.897Z,4.12
2019-05-09T07:44:12.904Z,4.12
2019-05-09T07:45:12.911Z,4.16
2019-05-09T07:46:12.916Z,4.14
2019-05-09T07:47:12.926Z,4.15
2019-05-09T07:48:12.936Z,4.05
2019-05-09T07:49:12.944Z,4.06
2019-05-09T07:50:12.958Z,4.00
2019-05-09T07:51:12.961Z,3.97
2019-05-09T07:52:12.979Z,4.14
2019-05-09T07:53:12.983Z,4.06
2019-05-09T07:54:22.107Z,4.09
2019-05-09T07:55:12.997Z,4.11
2019-05-09T07:56:13.006Z,4.16
2019-05-09T07:57:13.021Z,4.11
2019-05-09T07:58:14.424Z,4.24
2019-05-09T07:59:13.036Z,4.20
2019-05-09T08:00:13.042Z,4.24
2019-05-09T08:01:13.055Z,4.11
2019-05-09T08:02:13.075Z,4.11
2019-05-09T08:03:13.344Z,4.02
2019-05-09T08:04:13.081Z,3.98
2019-05-09T08:05:13.092Z,3.97
2019-05-09T08:06:13.101Z,3.87
2019-05-09T08:07:13.105Z,3.87
2019-05-09T08:08:13.115Z,4.04
2019-05-09T08:09:13.144Z,4.14
2019-05-09T08:10:13.141Z,3.91
2019-05-09T08:11:13.141Z,3.62
2019-05-09T08:12:13.150Z,3.21
2019-05-09T08:13:13.162Z,3.11
2019-05-09T08:14:13.167Z,3.17
2019-05-09T08:15:16.530Z,3.33
2019-05-09T08:16:14.798Z,2.85
2019-05-09T08:17:13.193Z,2.77
2019-05-09T08:18:13.203Z,2.49
2019-05-09T08:19:13.217Z,2.30
2019-05-09T08:20:13.934Z,2.09
2019-05-09T08:21:13.237Z,2.09
2019-05-09T08:22:13.240Z,2.06
2019-05-09T08:23:13.247Z,2.23
2019-05-09T08:24:13.256Z,2.30
2019-05-09T08:25:13.264Z,2.38
2019-05-09T08:26:13.273Z,2.31
2019-05-09T08:27:13.281Z,2.27
2019-05-09T08:28:13.300Z,2.35
2019-05-09T08:29:13.301Z,2.54
2019-05-09T08:30:13.306Z,2.67
2019-05-09T08:31:13.319Z,2.85
2019-05-09T08:32:13.326Z,3.02
2019-05-09T08:33:13.336Z,3.17
2019-05-09T08:34:13.342Z,3.35
2019-05-09T08:35:13.353Z,3.45
2019-05-09T08:36:13.358Z,3.68
2019-05-09T08:37:13.372Z,3.78
2019-05-09T08:38:13.376Z,3.86
2019-05-09T08:39:13.385Z,3.88
2019-05-09T08:40:13.395Z,3.91
2019-05-09T08:41:13.401Z,3.83
2019-05-09T08:42:13.413Z,3.88
2019-05-09T08:43:13.422Z,3.98
2019-05-09T08:44:13.448Z,4.00
2019-05-09T08:45:24.497Z,3.91
2019-05-09T08:46:13.444Z,3.68
2019-05-09T08:47:13.457Z,3.83
2019-05-09T08:48:13.471Z,3.87
2019-05-09T08:49:13.477Z,4.08
2019-05-09T08:50:13.483Z,4.23
2019-05-09T08:51:13.491Z,4.34
2019-05-09T08:52:16.432Z,4.45
2019-05-09T08:53:13.508Z,4.52
2019-05-09T08:54:13.517Z,4.84
2019-05-09T08:55:13.531Z,5.09
2019-05-09T08:56:13.567Z,5.24
2019-05-09T08:57:13.544Z,5.39
2019-05-09T08:58:13.555Z,5.54
2019-05-09T08:59:13.570Z,5.60
2019-05-09T09:00:13.573Z,5.27
2019-05-09T09:01:13.630Z,5.13
2019-05-09T09:02:16.534Z,5.31
2019-05-09T09:03:13.601Z,5.30
2019-05-09T09:04:13.640Z,5.43
2019-05-09T09:05:14.086Z,5.43
2019-05-09T09:06:13.635Z,5.43
2019-05-09T09:07:13.644Z,5.28
2019-05-09T09:08:13.650Z,5.36
2019-05-09T09:09:13.661Z,5.33
2019-05-09T09:10:13.682Z,5.07
2019-05-09T09:11:13.680Z,4.82
2019-05-09T09:12:25.982Z,4.52
2019-05-09T09:13:13.699Z,4.24
2019-05-09T09:14:13.720Z,4.51
2019-05-09T09:15:13.722Z,4.75
2019-05-09T09:16:18.829Z,4.85
2019-05-09T09:17:13.742Z,5.09
2019-05-09T09:18:13.755Z,5.27
2019-05-09T09:19:13.761Z,5.51
2019-05-09T09:20:13.771Z,5.61
2019-05-09T09:21:13.781Z,5.63
2019-05-09T09:22:13.792Z,5.76
2019-05-09T09:23:13.803Z,5.81
2019-05-09T09:24:13.814Z,6.04
2019-05-09T09:25:13.824Z,6.33
2019-05-09T09:26:13.829Z,7.02
2019-05-09T09:27:13.848Z,7.27
2019-05-09T09:28:13.854Z,7.42
2019-05-09T09:29:13.860Z,7.58
2019-05-09T09:30:20.226Z,7.63
2019-05-09T09:31:13.886Z,7.31
2019-05-09T09:32:13.900Z,6.74
2019-05-09T09:33:14.078Z,6.99
2019-05-09T09:34:13.914Z,7.06
2019-05-09T09:35:13.928Z,6.55
2019-05-09T09:36:13.936Z,6.44
2019-05-09T09:37:13.953Z,6.38
2019-05-09T09:38:13.956Z,6.36
2019-05-09T09:39:13.970Z,6.41
2019-05-09T09:40:13.984Z,6.62
2019-05-09T09:41:14.012Z,6.67
2019-05-09T09:42:14.015Z,6.49
2019-05-09T09:43:14.022Z,6.74
2019-05-09T09:44:14.029Z,6.81
2019-05-09T09:45:14.036Z,6.80
2019-05-09T09:46:14.902Z,6.87
2019-05-09T09:47:19.530Z,7.03
2019-05-09T09:48:14.069Z,6.95
2019-05-09T09:49:14.079Z,6.92
2019-05-09T09:50:14.099Z,6.81
2019-05-09T09:51:14.103Z,6.74
2019-05-09T09:52:14.114Z,6.80
2019-05-09T09:53:14.133Z,6.70
2019-05-09T09:54:14.138Z,6.69
2019-05-09T09:55:14.153Z,6.59
2019-05-09T09:56:14.199Z,6.73
2019-05-09T09:57:14.179Z,6.52
2019-05-09T09:58:14.182Z,5.85
2019-05-09T09:59:14.197Z,5.38
2019-05-09T10:00:14.209Z,5.48
2019-05-09T10:01:14.214Z,5.54
2019-05-09T10:02:14.231Z,4.97
2019-05-09T10:03:14.243Z,5.17
2019-05-09T10:04:20.752Z,5.53
2019-05-09T10:05:14.264Z,5.64
2019-05-09T10:06:14.271Z,5.81
2019-05-09T10:07:14.286Z,5.96
2019-05-09T10:08:14.294Z,6.06
2019-05-09T10:09:14.307Z,6.25
2019-05-09T10:10:14.322Z,6.37
2019-05-09T10:11:14.332Z,6.70
2019-05-09T10:12:14.342Z,6.84
2019-05-09T10:13:14.355Z,7.21
2019-05-09T10:14:14.362Z,7.37
2019-05-09T10:15:14.374Z,7.30
2019-05-09T10:16:28.590Z,7.31
2019-05-09T10:17:14.398Z,7.43
2019-05-09T10:18:14.405Z,7.31
2019-05-09T10:19:14.416Z,7.24
2019-05-09T10:20:14.428Z,7.12
2019-05-09T10:21:14.439Z,6.99
2019-05-09T10:22:14.451Z,7.02
2019-05-09T10:23:18.946Z,6.76
2019-05-09T10:24:14.474Z,6.62
2019-05-09T10:25:14.488Z,6.62
2019-05-09T10:26:14.500Z,6.84
2019-05-09T10:27:14.512Z,7.05
2019-05-09T10:28:14.524Z,7.35
2019-05-09T10:29:14.530Z,7.28
2019-05-09T10:30:14.547Z,7.58
2019-05-09T10:31:14.559Z,7.68
2019-05-09T10:32:14.568Z,6.56
2019-05-09T10:33:14.575Z,6.43
2019-05-09T10:34:14.588Z,6.64
2019-05-09T10:35:14.605Z,6.79
2019-05-09T10:36:14.612Z,6.67
2019-05-09T10:37:14.624Z,6.77
2019-05-09T10:38:14.636Z,6.52
2019-05-09T10:39:14.651Z,6.34
2019-05-09T10:40:14.658Z,6.49
2019-05-09T10:41:14.669Z,6.71
2019-05-09T10:42:14.682Z,6.73
2019-05-09T10:43:14.693Z,6.59
2019-05-09T10:44:14.707Z,6.79
2019-05-09T10:45:14.741Z,6.98
2019-05-09T10:46:16.402Z,7.31
2019-05-09T10:47:14.744Z,7.64
2019-05-09T10:48:14.759Z,7.77
2019-05-09T10:49:14.767Z,7.83
2019-05-09T10:50:14.776Z,8.00
2019-05-09T10:51:14.791Z,8.58
2019-05-09T10:52:14.861Z,8.80
2019-05-09T10:53:14.815Z,8.86
2019-05-09T10:54:14.822Z,8.87
2019-05-09T10:55:14.836Z,8.83
2019-05-09T10:56:14.861Z,8.83
2019-05-09T10:57:14.861Z,8.92
2019-05-09T10:58:14.873Z,8.74
2019-05-09T10:59:14.883Z,8.77
2019-05-09T11:00:14.899Z,8.94
2019-05-09T11:01:14.911Z,8.80
2019-05-09T11:02:17.389Z,8.50
2019-05-09T11:03:14.948Z,8.18
2019-05-09T11:04:14.945Z,7.89
2019-05-09T11:05:14.960Z,7.74
2019-05-09T11:06:17.892Z,7.77
2019-05-09T11:07:14.981Z,7.71
2019-05-09T11:08:14.994Z,6.69
2019-05-09T11:09:15.018Z,5.94
2019-05-09T11:10:25.815Z,5.83
2019-05-09T11:11:15.574Z,5.78
2019-05-09T11:12:15.048Z,5.93
2019-05-09T11:13:15.060Z,6.06
2019-05-09T11:14:31.543Z,6.18
2019-05-09T11:15:15.080Z,6.37
2019-05-09T11:16:15.092Z,6.56
2019-05-09T11:17:19.327Z,6.80
2019-05-09T11:18:15.121Z,6.95
2019-05-09T11:19:15.132Z,7.10
2019-05-09T11:20:15.148Z,7.13
2019-05-09T11:21:15.158Z,7.23
2019-05-09T11:22:15.169Z,7.34
2019-05-09T11:23:15.179Z,7.45
2019-05-09T11:24:15.319Z,7.57
2019-05-09T11:25:15.201Z,7.58
2019-05-09T11:26:17.663Z,7.55
2019-05-09T11:27:15.225Z,7.52
2019-05-09T11:28:17.733Z,7.39
2019-05-09T11:29:15.253Z,7.37
2019-05-09T11:30:17.526Z,7.24
2019-05-09T11:31:18.042Z,6.70
2019-05-09T11:32:15.287Z,6.56
2019-05-09T11:33:15.299Z,6.11
2019-05-09T11:34:15.313Z,6.06
2019-05-09T11:35:17.554Z,5.60
2019-05-09T11:36:20.175Z,5.43
2019-05-09T11:37:15.357Z,5.10
2019-05-09T11:38:29.310Z,5.03
2019-05-09T11:39:15.375Z,5.10
2019-05-09T11:40:15.388Z,5.30
2019-05-09T11:41:18.910Z,5.54
2019-05-09T11:42:17.706Z,5.94
2019-05-09T11:43:17.960Z,6.28
2019-05-09T11:44:15.431Z,6.40
2019-05-09T11:45:17.746Z,6.43
2019-05-09T11:46:17.747Z,6.51
2019-05-09T11:47:28.545Z,6.66
2019-05-09T11:48:15.471Z,6.70
2019-05-09T11:49:17.880Z,6.55
2019-05-09T11:50:19.084Z,6.69
2019-05-09T11:51:20.519Z,6.58
2019-05-09T11:52:18.189Z,6.33
2019-05-09T11:53:17.604Z,6.40
2019-05-09T11:54:17.238Z,6.31
2019-05-09T11:55:31.783Z,6.30
2019-05-09T11:56:17.690Z,5.82
2019-05-09T11:57:15.584Z,5.51
2019-05-09T11:58:18.005Z,5.38
2019-05-09T11:59:15.601Z,5.35
2019-05-09T12:00:17.804Z,5.56
2019-05-09T12:01:15.622Z,5.67
2019-05-09T12:02:17.863Z,5.78
2019-05-09T12:03:15.649Z,5.76
2019-05-09T12:04:15.658Z,5.89
2019-05-09T12:05:19.133Z,5.64
2019-05-09T12:06:16.273Z,5.40
2019-05-09T12:07:17.894Z,5.35
2019-05-09T12:08:17.744Z,5.12
2019-05-09T12:09:15.716Z,4.89
2019-05-09T12:10:15.726Z,4.91
2019-05-09T12:11:18.396Z,5.13
2019-05-09T12:12:15.750Z,5.39
2019-05-09T12:13:18.472Z,5.56
2019-05-09T12:14:15.771Z,5.68
2019-05-09T12:15:15.787Z,5.74
2019-05-09T12:16:18.151Z,5.91
2019-05-09T12:17:15.805Z,6.06
2019-05-09T12:18:15.816Z,6.06
2019-05-09T12:19:17.980Z,5.74
2019-05-09T12:20:17.934Z,5.63
2019-05-09T12:21:18.648Z,5.60
2019-05-09T12:22:18.866Z,5.64
2019-05-09T12:23:15.870Z,5.65
2019-05-09T12:24:18.196Z,5.51
2019-05-09T12:25:18.171Z,5.49
2019-05-09T12:26:17.955Z,5.58
2019-05-09T12:27:18.577Z,5.49
2019-05-09T12:28:18.762Z,5.49
2019-05-09T12:29:15.942Z,5.63
2019-05-09T12:30:18.732Z,5.63
2019-05-09T12:31:18.238Z,5.63
2019-05-09T12:32:18.422Z,5.78
2019-05-09T12:33:18.648Z,5.78
2019-05-09T12:34:18.918Z,5.90
2019-05-09T12:35:18.889Z,5.82
2019-05-09T12:36:18.772Z,5.57
2019-05-09T12:37:18.023Z,5.48
2019-05-09T12:38:18.070Z,5.49
2019-05-09T12:39:18.826Z,5.43
2019-05-09T12:40:19.793Z,5.39
2019-05-09T12:41:18.661Z,5.33
2019-05-09T12:42:18.479Z,5.31
2019-05-09T12:43:18.384Z,5.35
2019-05-09T12:44:18.277Z,5.30
2019-05-09T12:45:17.994Z,5.38
2019-05-09T12:46:16.118Z,5.38
2019-05-09T12:47:18.772Z,5.33
2019-05-09T12:48:19.259Z,5.21
2019-05-09T12:49:18.680Z,5.02
2019-05-09T12:50:18.541Z,4.82
2019-05-09T12:51:18.373Z,4.80
2019-05-09T12:52:18.481Z,4.89
2019-05-09T12:53:18.695Z,4.72
2019-05-09T12:54:18.749Z,4.70
2019-05-09T12:55:17.888Z,4.82
2019-05-09T12:56:18.481Z,4.84
2019-05-09T12:57:18.930Z,5.03
2019-05-09T12:58:17.803Z,5.17
2019-05-09T12:59:18.507Z,5.36
2019-05-09T13:00:18.465Z,5.45
2019-05-09T13:01:18.765Z,5.53
2019-05-09T13:02:17.768Z,5.58
2019-05-09T13:03:17.862Z,5.68
2019-05-09T13:04:16.316Z,5.74
2019-05-09T13:05:18.185Z,5.63
2019-05-09T13:06:19.557Z,5.64
2019-05-09T13:07:16.343Z,5.65
2019-05-09T13:08:17.759Z,5.64
2019-05-09T13:09:17.826Z,5.54
2019-05-09T13:10:19.464Z,5.39
2019-05-09T13:11:18.572Z,5.45
2019-05-09T13:12:18.066Z,5.38
2019-05-09T13:13:18.397Z,5.46
2019-05-09T13:14:18.920Z,5.46
2019-05-09T13:15:18.506Z,5.24
2019-05-09T13:16:17.700Z,4.92
2019-05-09T13:17:17.975Z,4.77
2019-05-09T13:18:24.514Z,4.75